Time;durP1;ratioP1;P1;durP2;ratioP2;P2;SDS_P1;SDS_P2;PMS_P1;PMS_P2;Temp;Humidity;BMP_temperature;BMP_pressure;BME280_temperature;BME280_humidity;BME280_pressure;Samples;Min_cycle;Max_cycle;Signal;HPM_P1;HPM_P2
2022/12/08 00:01:26;;;;;;;2.97;0.40;;;3.80;99.90;;;;;;5036143;28;20021;-74
2022/12/08 00:03:55;;;;;;;2.78;0.80;;;3.90;99.90;;;;;;5035786;28;20060;-74
2022/12/08 00:09:41;;;;;;;2.10;0.50;;;3.90;99.90;;;;;;5037193;28;20087;-74
2022/12/08 00:12:15;;;;;;;3.55;0.40;;;3.70;99.90;;;;;;5036221;28;20021;-74
2022/12/08 00:14:48;;;;;;;1.17;0.35;;;3.90;99.90;;;;;;5036641;28;20017;-74
2022/12/08 00:17:17;;;;;;;1.90;0.93;;;4.00;99.90;;;;;;5035392;28;20036;-74
2022/12/08 00:19:43;;;;;;;3.65;1.20;;;4.00;99.90;;;;;;5035693;28;20017;-74
2022/12/08 00:22:11;;;;;;;4.40;1.35;;;3.90;99.90;;;;;;5036064;28;20116;-74
2022/12/08 00:24:38;;;;;;;1.83;0.70;;;4.00;99.90;;;;;;5037410;28;20025;-74
2022/12/08 00:27:04;;;;;;;5.22;0.70;;;3.90;99.90;;;;;;5035991;28;20034;-74
2022/12/08 00:29:30;;;;;;;0.45;0.20;;;4.00;99.90;;;;;;5035974;28;20032;-74
2022/12/08 00:31:56;;;;;;;1.42;0.35;;;4.00;99.90;;;;;;5035826;28;20389;-74
2022/12/08 00:34:25;;;;;;;1.33;0.40;;;4.00;99.90;;;;;;5035995;28;20093;-75
2022/12/08 00:36:51;;;;;;;2.63;0.20;;;;;;;;;;5036646;28;20477;-74
2022/12/08 00:39:17;;;;;;;1.33;0.30;;;4.00;99.90;;;;;;5035758;28;20026;-74
2022/12/08 00:44:29;;;;;;;3.85;0.50;;;4.00;99.90;;;;;;5037317;28;20092;-75
2022/12/08 00:46:55;;;;;;;1.75;0.20;;;3.90;99.90;;;;;;5036338;28;20546;-74
2022/12/08 00:49:23;;;;;;;1.75;0.30;;;3.90;99.90;;;;;;5036621;28;20022;-75
2022/12/08 00:51:51;;;;;;;3.03;0.70;;;3.80;99.90;;;;;;5036704;28;20025;-74
2022/12/08 00:54:17;;;;;;;0.50;0.20;;;3.80;99.90;;;;;;5036783;28;20104;-74
2022/12/08 00:56:43;;;;;;;1.65;0.25;;;;;;;;;;5036550;28;20260;-74
2022/12/08 00:59:09;;;;;;;1.95;0.13;;;3.80;99.90;;;;;;5036597;28;20032;-74
2022/12/08 01:01:35;;;;;;;3.90;0.30;;;3.80;99.90;;;;;;5035571;28;20544;-74
2022/12/08 01:04:09;;;;;;;0.73;0.10;;;3.80;99.90;;;;;;5035138;28;20415;-74
2022/12/08 01:06:35;;;;;;;1.58;0.57;;;3.80;99.90;;;;;;5035260;28;20381;-74
2022/12/08 01:09:02;;;;;;;1.75;0.10;;;3.80;99.90;;;;;;5036354;28;20029;-74
2022/12/08 01:11:27;;;;;;;3.90;0.68;;;3.90;99.90;;;;;;5035175;28;20123;-73
2022/12/08 01:13:56;;;;;;;1.35;0.25;;;3.80;99.90;;;;;;5035342;28;20056;-74
2022/12/08 01:16:24;;;;;;;2.60;0.00;;;3.90;99.90;;;;;;5035138;28;20485;-74
2022/12/08 01:18:50;;;;;;;0.40;0.00;;;3.80;99.90;;;;;;5036504;28;20428;-75
2022/12/08 01:21:17;;;;;;;0.40;0.00;;;3.80;99.90;;;;;;5035174;28;20079;-75
2022/12/08 01:23:48;;;;;;;1.80;0.00;;;3.80;99.90;;;;;;5035971;28;20030;-75
2022/12/08 01:26:16;;;;;;;0.77;0.15;;;3.70;99.90;;;;;;5035963;28;20056;-75
2022/12/08 01:28:42;;;;;;;2.72;0.15;;;3.70;99.90;;;;;;5035992;28;20100;-75
2022/12/08 01:31:13;;;;;;;0.20;0.10;;;3.70;99.90;;;;;;5035381;28;20132;-75
2022/12/08 01:33:39;;;;;;;0.55;0.00;;;3.60;99.90;;;;;;5035449;28;20021;-75
2022/12/08 01:36:18;;;;;;;0.10;0.00;;;3.50;99.90;;;;;;5034885;28;20021;-75
2022/12/08 01:38:44;;;;;;;1.00;0.15;;;3.50;99.90;;;;;;5035219;28;20045;-75
2022/12/08 01:41:14;;;;;;;0.55;0.00;;;3.60;99.90;;;;;;5035183;28;20380;-75
2022/12/08 01:44:03;;;;;;;1.45;0.00;;;3.50;99.90;;;;;;5034046;28;20392;-75
2022/12/08 01:46:42;;;;;;;2.20;0.00;;;3.50;99.90;;;;;;5029739;28;20057;-75
2022/12/08 01:49:14;;;;;;;0.20;0.20;;;3.60;99.90;;;;;;5035038;28;20021;-75
2022/12/08 01:52:09;;;;;;;1.27;0.45;;;3.60;99.90;;;;;;5035350;28;20101;-75
2022/12/08 01:54:42;;;;;;;1.48;0.10;;;3.30;99.90;;;;;;5034855;28;20436;-75
2022/12/08 01:57:28;;;;;;;0.70;0.30;;;;;;;;;;5034758;28;20427;-75
2022/12/08 02:00:02;;;;;;;2.03;0.60;;;3.70;99.90;;;;;;5035041;28;20029;-75
2022/12/08 02:02:36;;;;;;;0.68;0.50;;;3.80;99.90;;;;;;5033534;28;20029;-75
2022/12/08 02:05:02;;;;;;;0.98;0.50;;;3.70;99.90;;;;;;5033342;28;20032;-75
2022/12/08 02:07:29;;;;;;;1.63;0.20;;;3.80;99.90;;;;;;5033469;28;20033;-75
2022/12/08 02:09:57;;;;;;;1.88;0.77;;;3.70;99.90;;;;;;5034571;28;20088;-76
2022/12/08 02:12:26;;;;;;;2.80;0.60;;;3.70;99.90;;;;;;5034516;28;20387;-76
2022/12/08 02:14:52;;;;;;;0.50;0.50;;;3.80;99.90;;;;;;5034458;28;20017;-75
2022/12/08 02:17:36;;;;;;;3.65;0.60;;;3.80;99.90;;;;;;5035612;28;20072;-75
2022/12/08 02:20:05;;;;;;;4.13;0.85;;;3.70;99.90;;;;;;5035294;28;20026;-75
2022/12/08 02:22:52;;;;;;;0.73;0.47;;;3.50;99.90;;;;;;5035749;28;20030;-75
2022/12/08 02:25:36;;;;;;;2.67;1.23;;;3.80;99.90;;;;;;5036637;28;20060;-76
2022/12/08 02:28:24;;;;;;;2.15;0.93;;;3.80;99.90;;;;;;5036576;28;20033;-76
2022/12/08 02:31:07;;;;;;;1.77;0.70;;;3.90;99.90;;;;;;5035475;28;20075;-76
2022/12/08 02:34:01;;;;;;;2.75;0.90;;;3.80;99.90;;;;;;5036189;28;20032;-76
2022/12/08 02:36:38;;;;;;;1.60;0.85;;;3.90;99.90;;;;;;5035801;28;20033;-76
2022/12/08 02:39:25;;;;;;;1.55;1.00;;;3.90;99.90;;;;;;5035809;28;20022;-75
2022/12/08 02:41:55;;;;;;;1.33;0.60;;;3.90;99.90;;;;;;5036099;28;20029;-75
2022/12/08 02:45:03;;;;;;;2.90;0.63;;;3.90;99.90;;;;;;5035545;28;20025;-75
2022/12/08 02:47:30;;;;;;;2.58;0.60;;;3.90;99.90;;;;;;4983038;28;20485;-76
2022/12/08 02:49:57;;;;;;;1.42;0.50;;;3.90;99.90;;;;;;5035628;28;20415;-75
2022/12/08 02:52:22;;;;;;;1.33;0.28;;;3.90;99.90;;;;;;5034155;28;20021;-75
2022/12/08 02:55:05;;;;;;;1.02;0.30;;;3.90;99.90;;;;;;5035269;28;20024;-75
2022/12/08 02:58:04;;;;;;;0.52;0.32;;;3.90;99.90;;;;;;5034704;28;20020;-75
2022/12/08 03:00:56;;;;;;;1.90;0.10;;;3.90;99.90;;;;;;5035540;28;20397;-75
2022/12/08 03:03:33;;;;;;;0.73;0.10;;;3.80;99.90;;;;;;5014921;28;20045;-76
2022/12/08 03:06:10;;;;;;;1.85;0.08;;;3.80;99.90;;;;;;5035969;28;20025;-76
2022/12/08 03:08:54;;;;;;;0.47;0.05;;;3.90;99.90;;;;;;5036941;28;20025;-75
2022/12/08 03:11:35;;;;;;;3.15;0.20;;;3.80;99.90;;;;;;5036219;28;20406;-76
2022/12/08 03:14:03;;;;;;;0.38;0.00;;;3.80;99.90;;;;;;5036985;28;20411;-76
2022/12/08 03:16:35;;;;;;;1.60;0.00;;;3.90;99.90;;;;;;5036331;28;20499;-76
2022/12/08 03:19:18;;;;;;;4.20;0.08;;;3.90;99.90;;;;;;5035933;28;20028;-76
2022/12/08 03:21:50;;;;;;;3.50;0.00;;;3.90;99.90;;;;;;5033599;28;20033;-75
2022/12/08 03:24:18;;;;;;;8.00;0.00;;;3.90;99.90;;;;;;5033032;28;20377;-75
2022/12/08 03:26:55;;;;;;;0.90;0.00;;;4.00;99.90;;;;;;5033951;28;20535;-76
2022/12/08 03:29:24;;;;;;;1.17;0.00;;;3.90;99.90;;;;;;5033579;28;20365;-75
2022/12/08 03:31:54;;;;;;;0.30;0.00;;;3.90;99.90;;;;;;5033914;28;20365;-75
2022/12/08 03:34:22;;;;;;;1.20;0.00;;;3.90;99.90;;;;;;5032727;28;20014;-75
2022/12/08 03:36:48;;;;;;;0.00;0.00;;;3.80;99.90;;;;;;5033244;28;20498;-75
2022/12/08 03:39:17;;;;;;;1.60;0.00;;;3.80;99.90;;;;;;5034045;28;20049;-75
2022/12/08 03:41:43;;;;;;;0.00;0.00;;;3.80;99.90;;;;;;5033761;28;20087;-75
2022/12/08 03:44:08;;;;;;;0.80;0.00;;;3.70;99.90;;;;;;5033885;28;20104;-75
2022/12/08 03:46:34;;;;;;;1.67;0.00;;;3.70;99.90;;;;;;5033815;28;20048;-76
2022/12/08 03:48:59;;;;;;;2.95;0.22;;;3.70;99.90;;;;;;5035763;28;20103;-76
2022/12/08 03:51:28;;;;;;;0.40;0.00;;;3.70;99.90;;;;;;5036884;28;20033;-76
2022/12/08 03:53:54;;;;;;;0.22;0.00;;;;;;;;;;5038283;28;20095;-75
2022/12/08 03:56:24;;;;;;;0.73;0.00;;;3.60;99.90;;;;;;5037252;28;20029;-76
2022/12/08 03:58:58;;;;;;;1.20;0.00;;;3.60;99.90;;;;;;5038287;28;20018;-76
2022/12/08 04:01:26;;;;;;;0.73;0.00;;;3.60;99.90;;;;;;5038502;28;20025;-76
2022/12/08 04:03:55;;;;;;;0.57;0.10;;;3.60;99.90;;;;;;5038792;28;20021;-76
2022/12/08 04:06:21;;;;;;;0.35;0.00;;;3.50;99.90;;;;;;5037098;28;20032;-76
2022/12/08 04:08:48;;;;;;;1.17;0.47;;;;;;;;;;5036936;28;20025;-76
2022/12/08 04:11:14;;;;;;;0.00;0.00;;;3.50;99.90;;;;;;5038055;28;20030;-76
2022/12/08 04:13:44;;;;;;;3.40;0.13;;;3.60;99.90;;;;;;5037241;28;20095;-76
2022/12/08 04:16:21;;;;;;;1.90;0.00;;;3.60;99.90;;;;;;5035967;28;20135;-76
2022/12/08 04:18:47;;;;;;;0.28;0.00;;;3.50;99.90;;;;;;5036173;28;20025;-76
2022/12/08 04:21:13;;;;;;;0.00;0.00;;;3.50;99.90;;;;;;5052525;23;20037;-77
2022/12/08 04:23:39;;;;;;;1.02;0.00;;;3.50;99.90;;;;;;5076460;28;20036;-77
2022/12/08 04:26:05;;;;;;;0.88;0.00;;;3.50;99.90;;;;;;5076343;28;20474;-77
2022/12/08 04:28:32;;;;;;;1.70;0.10;;;3.60;99.90;;;;;;5077202;28;20095;-76
2022/12/08 04:30:57;;;;;;;5.32;0.40;;;3.60;99.90;;;;;;5075098;28;20033;-76
2022/12/08 04:33:23;;;;;;;2.17;0.17;;;3.60;99.90;;;;;;5076129;28;20028;-76
2022/12/08 04:35:49;;;;;;;1.23;0.20;;;3.70;99.90;;;;;;5075779;28;20078;-76
2022/12/08 04:38:15;;;;;;;1.00;0.05;;;3.70;99.90;;;;;;5076319;28;20028;-75
2022/12/08 04:40:41;;;;;;;0.70;0.28;;;3.70;99.90;;;;;;5076529;28;20475;-75
2022/12/08 04:43:07;;;;;;;1.83;0.00;;;;;;;;;;5076302;28;20032;-75
2022/12/08 04:45:34;;;;;;;1.65;0.00;;;;;;;;;;5072340;28;20033;-76
2022/12/08 04:48:00;;;;;;;1.17;0.00;;;3.70;99.90;;;;;;5074336;28;20440;-76
2022/12/08 04:50:26;;;;;;;0.52;0.00;;;3.70;99.90;;;;;;5075830;28;20029;-75
2022/12/08 04:52:52;;;;;;;4.80;0.00;;;3.60;99.90;;;;;;5075259;28;20104;-76
2022/12/08 04:55:18;;;;;;;0.35;0.00;;;3.60;99.90;;;;;;5074012;28;20017;-75
2022/12/08 04:57:44;;;;;;;0.05;0.00;;;3.70;99.90;;;;;;5075284;28;20088;-75
2022/12/08 05:00:10;;;;;;;0.00;0.00;;;3.70;99.90;;;;;;5074812;28;20024;-76
2022/12/08 05:02:36;;;;;;;2.85;0.00;;;3.70;99.90;;;;;;5073779;28;20074;-76
2022/12/08 05:05:02;;;;;;;0.47;0.00;;;3.80;99.90;;;;;;5073717;28;20106;-76
2022/12/08 05:07:28;;;;;;;1.75;0.00;;;3.80;99.90;;;;;;5075074;28;20060;-76
2022/12/08 05:09:53;;;;;;;2.25;0.45;;;3.80;99.90;;;;;;5075570;28;20029;-75
2022/12/08 05:12:19;;;;;;;2.35;0.00;;;3.80;99.90;;;;;;5073538;28;20028;-75
2022/12/08 05:14:46;;;;;;;0.30;0.00;;;3.80;99.90;;;;;;5074749;28;20023;-75
2022/12/08 05:17:11;;;;;;;2.30;0.00;;;3.80;99.90;;;;;;5074694;28;20020;-76
2022/12/08 05:19:37;;;;;;;2.67;0.00;;;3.70;99.90;;;;;;5074721;28;20021;-75
2022/12/08 05:22:02;;;;;;;2.58;0.00;;;3.70;99.90;;;;;;5074802;28;20077;-76
2022/12/08 05:24:28;;;;;;;2.15;0.00;;;3.70;99.90;;;;;;5073462;28;20021;-75
2022/12/08 05:26:53;;;;;;;0.85;0.00;;;3.80;99.90;;;;;;5074557;28;20540;-75
2022/12/08 05:29:19;;;;;;;0.00;0.00;;;3.70;99.90;;;;;;5075386;28;20178;-75
2022/12/08 05:31:45;;;;;;;0.63;0.00;;;3.70;99.90;;;;;;5074564;28;20479;-75
2022/12/08 05:34:10;;;;;;;0.10;0.00;;;3.60;99.90;;;;;;5073299;28;20021;-75
2022/12/08 05:36:36;;;;;;;0.30;0.00;;;3.50;99.90;;;;;;5074412;28;20025;-75
2022/12/08 05:39:01;;;;;;;0.55;0.00;;;3.50;99.90;;;;;;5073221;28;20020;-75
2022/12/08 05:41:27;;;;;;;4.28;0.00;;;3.50;99.90;;;;;;5074505;28;20017;-75
2022/12/08 05:43:52;;;;;;;0.82;0.10;;;3.40;99.90;;;;;;5074378;28;20028;-75
2022/12/08 05:46:18;;;;;;;0.30;0.00;;;3.40;99.90;;;;;;5074252;28;20024;-75
2022/12/08 05:48:43;;;;;;;0.00;0.00;;;3.40;99.90;;;;;;5074180;28;20028;-75
2022/12/08 05:51:18;;;;;;;0.10;0.00;;;3.40;99.90;;;;;;5074589;28;20036;-75
2022/12/08 05:53:44;;;;;;;0.15;0.13;;;3.40;99.90;;;;;;5074256;28;20024;-74
2022/12/08 05:56:09;;;;;;;6.18;0.55;;;3.30;99.90;;;;;;5074009;28;20104;-75
2022/12/08 05:58:35;;;;;;;0.20;0.00;;;3.30;99.90;;;;;;5072903;28;20063;-75
2022/12/08 06:01:01;;;;;;;0.30;0.00;;;3.30;99.90;;;;;;5074400;28;20028;-75
2022/12/08 06:03:26;;;;;;;1.50;0.00;;;3.30;99.90;;;;;;5073077;28;20024;-75
2022/12/08 06:05:52;;;;;;;0.00;0.00;;;3.30;99.90;;;;;;5074667;28;20031;-75
2022/12/08 06:08:17;;;;;;;1.25;0.00;;;3.30;99.90;;;;;;5074453;28;20074;-74
2022/12/08 06:10:44;;;;;;;0.70;0.10;;;3.20;99.90;;;;;;5072374;28;20035;-75
2022/12/08 06:13:09;;;;;;;2.95;0.00;;;3.20;99.90;;;;;;5074316;28;20367;-75
2022/12/08 06:15:39;;;;;;;0.00;0.00;;;3.20;99.90;;;;;;5072829;28;20055;-75
2022/12/08 06:18:05;;;;;;;0.30;0.03;;;3.20;99.90;;;;;;5074950;28;20036;-75
2022/12/08 06:20:31;;;;;;;1.20;0.00;;;3.10;99.90;;;;;;5074742;28;20016;-75
2022/12/08 06:22:57;;;;;;;0.43;0.00;;;3.10;99.90;;;;;;5074072;28;20124;-75
2022/12/08 06:25:23;;;;;;;1.30;0.08;;;3.10;99.90;;;;;;5072310;28;20059;-75
2022/12/08 06:27:49;;;;;;;0.10;0.10;;;3.10;99.90;;;;;;5074038;28;20025;-75
2022/12/08 06:30:15;;;;;;;1.00;0.00;;;3.10;99.90;;;;;;5074312;28;20548;-75
2022/12/08 06:32:40;;;;;;;0.38;0.00;;;3.10;99.90;;;;;;5074264;28;20021;-75
2022/12/08 06:35:07;;;;;;;1.92;0.43;;;3.10;99.90;;;;;;5074077;28;20048;-75
2022/12/08 06:37:32;;;;;;;0.77;0.05;;;3.00;99.90;;;;;;5072979;28;20056;-74
2022/12/08 06:39:58;;;;;;;1.15;0.10;;;3.10;99.90;;;;;;5072780;28;20021;-74
2022/12/08 06:45:08;;;;;;;1.38;0.00;;;3.10;99.90;;;;;;5073960;28;20047;-75
2022/12/08 06:47:34;;;;;;;1.65;0.00;;;3.10;99.90;;;;;;5073965;28;20025;-75
2022/12/08 06:50:00;;;;;;;0.77;0.00;;;3.00;99.90;;;;;;5074764;28;20025;-74
2022/12/08 06:52:26;;;;;;;0.77;0.00;;;3.00;99.90;;;;;;5072462;28;20031;-73
2022/12/08 06:54:51;;;;;;;0.35;0.15;;;3.00;99.90;;;;;;5073671;28;20387;-74
2022/12/08 06:57:20;;;;;;;0.30;0.00;;;2.90;99.90;;;;;;5072978;28;20025;-74
2022/12/08 06:59:45;;;;;;;0.28;0.08;;;2.90;99.90;;;;;;5074154;28;20029;-74
2022/12/08 07:02:11;;;;;;;0.17;0.00;;;2.80;99.90;;;;;;5073922;28;20021;-74
2022/12/08 07:04:36;;;;;;;0.65;0.10;;;2.90;99.90;;;;;;5072584;28;20016;-74
2022/12/08 07:07:02;;;;;;;0.55;0.00;;;2.90;99.90;;;;;;5074238;28;20017;-74
2022/12/08 07:09:28;;;;;;;2.17;0.08;;;;;;;;;;5074013;28;20024;-75
2022/12/08 07:11:57;;;;;;;0.43;0.00;;;2.90;99.90;;;;;;5074600;28;20017;-75
2022/12/08 07:14:23;;;;;;;3.22;0.00;;;2.90;99.90;;;;;;5072749;28;20027;-75
2022/12/08 07:16:50;;;;;;;2.92;0.38;;;2.80;99.90;;;;;;5066365;28;20557;-76
2022/12/08 07:19:16;;;;;;;2.85;0.00;;;2.80;99.90;;;;;;5073874;28;20021;-75
2022/12/08 07:21:41;;;;;;;0.65;0.00;;;2.80;99.90;;;;;;5070801;28;20107;-76
2022/12/08 07:24:07;;;;;;;0.20;0.05;;;;;;;;;;5075894;28;20502;-75
2022/12/08 07:26:33;;;;;;;0.45;0.00;;;2.80;99.90;;;;;;5075560;28;20571;-75
2022/12/08 07:28:59;;;;;;;0.00;0.00;;;2.80;99.90;;;;;;5073974;28;20071;-75
2022/12/08 07:31:27;;;;;;;0.13;0.00;;;2.70;99.90;;;;;;5076336;28;20056;-75
2022/12/08 07:33:53;;;;;;;0.00;0.00;;;2.70;99.90;;;;;;5077012;28;20040;-75
2022/12/08 07:36:19;;;;;;;0.65;0.00;;;2.70;99.90;;;;;;5077127;28;20024;-75
2022/12/08 07:38:44;;;;;;;0.10;0.00;;;2.70;99.90;;;;;;5077130;28;20031;-75
2022/12/08 07:41:16;;;;;;;0.43;0.00;;;2.60;99.90;;;;;;5076177;28;20104;-75
2022/12/08 07:43:42;;;;;;;0.03;0.00;;;2.60;99.90;;;;;;5076894;28;20028;-75
2022/12/08 07:46:14;;;;;;;0.85;0.00;;;2.60;99.90;;;;;;5075373;28;20441;-75
2022/12/08 07:48:41;;;;;;;2.75;0.00;;;2.50;99.90;;;;;;5077434;28;20024;-75
2022/12/08 07:51:07;;;;;;;0.00;0.00;;;2.50;99.90;;;;;;5075565;28;20034;-75
2022/12/08 07:53:33;;;;;;;2.38;0.00;;;2.50;99.90;;;;;;5076707;28;20447;-75
2022/12/08 07:55:59;;;;;;;0.32;0.00;;;2.50;99.90;;;;;;5075635;28;20116;-75
2022/12/08 07:58:25;;;;;;;0.05;0.00;;;2.50;99.90;;;;;;5077008;28;20488;-75
2022/12/08 08:00:51;;;;;;;0.57;0.00;;;2.50;99.90;;;;;;5077486;28;20028;-75
2022/12/08 08:03:17;;;;;;;4.63;0.55;;;2.50;99.90;;;;;;5077778;28;20110;-74
2022/12/08 08:05:43;;;;;;;0.22;0.00;;;2.60;99.90;;;;;;5075744;28;20056;-75
2022/12/08 08:08:09;;;;;;;0.10;0.00;;;2.60;99.90;;;;;;5076811;28;20025;-75
2022/12/08 08:10:35;;;;;;;0.25;0.00;;;2.60;99.90;;;;;;5075055;28;20033;-76
2022/12/08 08:13:01;;;;;;;0.25;0.00;;;2.60;99.90;;;;;;5075438;28;20162;-76
2022/12/08 08:15:26;;;;;;;0.00;0.00;;;2.60;99.90;;;;;;5075579;28;20056;-75
2022/12/08 08:17:52;;;;;;;0.00;0.00;;;2.60;99.90;;;;;;5077071;28;20082;-75
2022/12/08 08:20:19;;;;;;;0.43;0.00;;;2.60;99.90;;;;;;5075281;28;20020;-75
2022/12/08 08:22:49;;;;;;;3.38;0.35;;;2.70;99.90;;;;;;5075813;28;20036;-76
2022/12/08 08:25:16;;;;;;;0.35;0.00;;;2.60;99.90;;;;;;5074648;28;20028;-76
2022/12/08 08:27:42;;;;;;;2.42;0.00;;;2.60;99.90;;;;;;5075077;28;20028;-76
2022/12/08 08:30:10;;;;;;;1.45;0.00;;;2.60;99.90;;;;;;5076807;28;20028;-76
2022/12/08 08:32:36;;;;;;;2.10;0.00;;;2.70;99.90;;;;;;5075347;28;20017;-76
2022/12/08 08:35:02;;;;;;;0.98;0.00;;;2.70;99.90;;;;;;5074576;28;20549;-76
2022/12/08 08:37:28;;;;;;;0.00;0.00;;;2.80;99.90;;;;;;5076934;28;20078;-76
2022/12/08 08:39:54;;;;;;;0.32;0.00;;;2.80;99.90;;;;;;5076592;28;20020;-76
2022/12/08 08:42:19;;;;;;;0.00;0.00;;;2.80;99.90;;;;;;5076387;28;20025;-76
2022/12/08 08:44:45;;;;;;;0.30;0.00;;;2.90;99.90;;;;;;5076177;28;20033;-75
2022/12/08 08:47:11;;;;;;;1.55;0.10;;;2.80;99.90;;;;;;5076372;28;20024;-76
2022/12/08 08:49:37;;;;;;;0.17;0.00;;;2.90;99.90;;;;;;5074941;28;20070;-76
2022/12/08 08:52:04;;;;;;;0.57;0.00;;;2.90;99.90;;;;;;5075378;28;20028;-75
2022/12/08 08:54:30;;;;;;;0.25;0.00;;;2.90;99.90;;;;;;5073843;28;20027;-75
2022/12/08 08:57:00;;;;;;;0.70;0.13;;;2.90;99.90;;;;;;5075629;28;20028;-76
2022/12/08 08:59:26;;;;;;;1.08;0.00;;;2.90;99.90;;;;;;5074643;28;20151;-76
2022/12/08 09:01:52;;;;;;;0.20;0.00;;;2.90;99.90;;;;;;5074435;28;20364;-75
2022/12/08 09:04:19;;;;;;;1.10;0.00;;;3.00;99.90;;;;;;5074722;28;20047;-76
2022/12/08 09:06:45;;;;;;;1.98;0.08;;;3.00;99.90;;;;;;5074200;28;20035;-76
2022/12/08 09:09:11;;;;;;;0.75;0.00;;;3.00;99.90;;;;;;5074933;28;20487;-76
2022/12/08 09:11:37;;;;;;;0.38;0.00;;;3.00;99.90;;;;;;5075738;28;20032;-76
2022/12/08 09:14:03;;;;;;;0.63;0.00;;;3.00;99.90;;;;;;5074309;28;20053;-76
2022/12/08 09:16:28;;;;;;;1.75;0.00;;;3.00;99.90;;;;;;5075006;28;20092;-76
2022/12/08 09:18:54;;;;;;;0.35;0.00;;;3.00;99.90;;;;;;5075616;28;20437;-76
2022/12/08 09:21:25;;;;;;;0.25;0.00;;;3.10;99.90;;;;;;5076012;28;20028;-76
2022/12/08 09:23:53;;;;;;;0.10;0.00;;;3.10;99.90;;;;;;5075304;28;20028;-77
2022/12/08 09:26:21;;;;;;;1.58;0.20;;;3.10;99.90;;;;;;5074874;28;20407;-76
2022/12/08 09:28:48;;;;;;;2.65;0.08;;;3.20;99.90;;;;;;5075430;28;20024;-76
2022/12/08 09:31:15;;;;;;;2.22;0.00;;;3.20;99.90;;;;;;5074148;28;20021;-76
2022/12/08 09:33:41;;;;;;;5.40;0.13;;;3.30;99.90;;;;;;5074624;28;20028;-76
2022/12/08 09:36:08;;;;;;;0.00;0.00;;;3.30;99.90;;;;;;5075515;28;20017;-76
2022/12/08 09:38:33;;;;;;;0.10;0.00;;;3.40;99.90;;;;;;5073665;28;20023;-76
2022/12/08 09:41:01;;;;;;;1.15;0.00;;;3.40;99.90;;;;;;5074609;28;20016;-76
2022/12/08 09:43:42;;;;;;;1.42;0.77;;;3.40;99.90;;;;;;5074977;28;20032;-76
2022/12/08 09:46:10;;;;;;;0.30;0.00;;;3.40;99.90;;;;;;5075169;28;20024;-76
2022/12/08 09:48:44;;;;;;;2.10;0.00;;;3.40;99.90;;;;;;5075722;28;20039;-76
2022/12/08 09:51:12;;;;;;;2.13;0.00;;;3.40;99.90;;;;;;5075389;28;20074;-76
2022/12/08 09:53:47;;;;;;;0.13;0.00;;;3.40;99.90;;;;;;5075252;28;20153;-76
2022/12/08 09:56:16;;;;;;;0.13;0.00;;;3.40;99.90;;;;;;5073614;28;20025;-76
2022/12/08 09:58:58;;;;;;;1.83;0.00;;;3.40;99.90;;;;;;5074456;28;20364;-76
2022/12/08 10:01:41;;;;;;;1.95;0.00;;;3.40;99.90;;;;;;5075004;28;20056;-76
2022/12/08 10:04:36;;;;;;;0.25;0.10;;;3.50;99.90;;;;;;5073400;28;20390;-75
2022/12/08 10:07:23;;;;;;;0.10;0.00;;;3.50;99.90;;;;;;5073817;28;20017;-75
2022/12/08 10:10:03;;;;;;;1.55;0.00;;;3.50;99.90;;;;;;5073493;28;20021;-75
2022/12/08 10:13:00;;;;;;;3.92;0.00;;;3.60;99.90;;;;;;5073251;28;20448;-75
2022/12/08 10:15:42;;;;;;;1.55;0.00;;;3.60;99.90;;;;;;5074507;28;20051;-76
2022/12/08 10:18:32;;;;;;;0.00;0.00;;;3.60;99.90;;;;;;5074045;28;20099;-76
2022/12/08 10:21:21;;;;;;;0.00;0.00;;;3.50;99.90;;;;;;5063513;28;20024;-76
2022/12/08 10:23:54;;;;;;;0.32;0.00;;;3.60;99.90;;;;;;5054727;28;20041;-76
2022/12/08 10:26:21;;;;;;;3.95;0.35;;;3.50;99.90;;;;;;5053886;28;20021;-76
2022/12/08 10:28:47;;;;;;;0.20;0.00;;;3.40;99.90;;;;;;5052815;28;20548;-76
2022/12/08 10:31:18;;;;;;;0.00;0.00;;;3.40;99.90;;;;;;5053404;28;20104;-75
2022/12/08 10:33:45;;;;;;;0.00;0.00;;;3.50;99.90;;;;;;5051580;28;20067;-75
2022/12/08 10:36:11;;;;;;;2.20;0.00;;;3.40;99.90;;;;;;5054583;28;20028;-76
2022/12/08 10:38:38;;;;;;;1.63;0.00;;;3.40;99.90;;;;;;5053860;28;20016;-75
2022/12/08 10:41:10;;;;;;;0.00;0.00;;;3.40;99.90;;;;;;5056513;28;20044;-75
2022/12/08 10:43:46;;;;;;;0.20;0.00;;;3.40;99.90;;;;;;5055819;28;20394;-75
2022/12/08 10:46:18;;;;;;;0.50;0.20;;;3.40;99.90;;;;;;5053819;28;20036;-75
2022/12/08 10:48:48;;;;;;;1.98;0.00;;;3.30;99.90;;;;;;5053658;28;20079;-75
2022/12/08 10:51:38;;;;;;;1.05;0.10;;;3.20;99.90;;;;;;5055450;28;20028;-75
2022/12/08 10:54:07;;;;;;;0.50;0.00;;;3.20;99.90;;;;;;5055827;28;20143;-75
2022/12/08 10:56:33;;;;;;;0.40;0.00;;;3.20;99.90;;;;;;5055516;28;20021;-75
2022/12/08 10:59:09;;;;;;;2.15;0.00;;;3.20;99.90;;;;;;5059515;28;20094;-75
2022/12/08 11:01:38;;;;;;;1.85;0.00;;;3.20;99.90;;;;;;5059294;28;20029;-75
2022/12/08 11:04:19;;;;;;;0.10;0.00;;;3.30;99.90;;;;;;5058574;28;20017;-75
2022/12/08 11:06:47;;;;;;;0.30;0.20;;;3.30;99.90;;;;;;5057434;28;20029;-75
2022/12/08 11:09:15;;;;;;;0.22;0.20;;;3.30;99.90;;;;;;5059235;28;20388;-75
2022/12/08 11:11:48;;;;;;;1.38;0.10;;;3.30;99.90;;;;;;5058298;28;20033;-75
2022/12/08 11:14:20;;;;;;;1.00;0.32;;;3.30;99.90;;;;;;5057509;28;20108;-75
2022/12/08 11:16:47;;;;;;;0.30;0.00;;;3.40;99.90;;;;;;5058626;28;20025;-76
2022/12/08 11:19:18;;;;;;;0.15;0.00;;;3.30;99.90;;;;;;5058799;28;20025;-76
2022/12/08 11:21:44;;;;;;;0.30;0.00;;;3.30;99.90;;;;;;5058867;28;20480;-75
2022/12/08 11:24:13;;;;;;;0.05;0.00;;;3.30;99.90;;;;;;5057698;28;20088;-75
2022/12/08 11:26:50;;;;;;;0.40;0.00;;;3.30;99.90;;;;;;5059402;28;20090;-75
2022/12/08 11:29:16;;;;;;;0.40;0.00;;;3.30;99.90;;;;;;5059375;28;20017;-75
2022/12/08 11:32:05;;;;;;;1.40;0.00;;;3.40;99.90;;;;;;5057358;28;20456;-75
2022/12/08 11:34:39;;;;;;;0.30;0.00;;;3.40;99.90;;;;;;5058689;28;20428;-75
2022/12/08 11:37:09;;;;;;;0.82;0.10;;;3.40;99.90;;;;;;5057850;28;20439;-75
2022/12/08 11:39:45;;;;;;;0.77;0.00;;;3.40;99.90;;;;;;5057163;28;20048;-75
2022/12/08 11:42:14;;;;;;;0.28;0.00;;;3.40;99.90;;;;;;5057126;28;20070;-75
2022/12/08 11:44:48;;;;;;;1.95;0.00;;;3.50;99.90;;;;;;5058115;28;20472;-75
2022/12/08 11:47:25;;;;;;;0.82;0.10;;;3.50;99.90;;;;;;5056498;28;20465;-75
2022/12/08 11:49:55;;;;;;;0.10;0.00;;;3.50;99.90;;;;;;5058528;28;20112;-76
2022/12/08 11:52:40;;;;;;;2.30;0.00;;;3.60;99.90;;;;;;5057821;28;20017;-75
2022/12/08 11:55:35;;;;;;;0.65;0.00;;;3.70;99.90;;;;;;5057975;28;20490;-75
2022/12/08 11:58:16;;;;;;;1.30;0.25;;;3.70;99.90;;;;;;5052456;28;20416;-74
2022/12/08 12:00:42;;;;;;;2.10;0.47;;;3.70;99.90;;;;;;5055585;28;20028;-74
2022/12/08 12:03:33;;;;;;;1.95;0.00;;;3.80;99.90;;;;;;5058788;28;20021;-77
2022/12/08 12:06:26;;;;;;;0.25;0.00;;;3.90;99.90;;;;;;5058780;28;20518;-76
2022/12/08 12:08:58;;;;;;;1.67;0.00;;;3.90;99.90;;;;;;5055104;28;20021;-77
2022/12/08 12:12:14;;;;;;;2.72;0.05;;;4.00;99.90;;;;;;5056347;28;20057;-77
2022/12/08 12:14:43;;;;;;;0.32;0.00;;;3.90;99.90;;;;;;5057438;28;20033;-77
2022/12/08 12:17:38;;;;;;;2.45;0.00;;;4.00;99.90;;;;;;5057901;28;20043;-77
2022/12/08 12:20:12;;;;;;;2.30;0.05;;;4.00;99.90;;;;;;5056239;28;20029;-77
2022/12/08 12:22:39;;;;;;;2.33;0.00;;;3.90;99.90;;;;;;5056211;28;20033;-77
2022/12/08 12:25:05;;;;;;;5.75;0.73;;;;;;;;;;5056694;28;20177;-77
2022/12/08 12:27:39;;;;;;;1.75;0.00;;;3.80;99.90;;;;;;5054751;28;20028;-77
2022/12/08 12:30:19;;;;;;;3.25;0.10;;;3.80;99.90;;;;;;5055727;28;20028;-77
2022/12/08 12:32:51;;;;;;;1.45;0.00;;;3.80;99.90;;;;;;5054489;28;20082;-77
2022/12/08 12:35:40;;;;;;;0.32;0.00;;;3.90;99.90;;;;;;5055985;28;20468;-77
2022/12/08 12:41:05;;;;;;;1.02;0.00;;;4.20;99.90;;;;;;5056454;28;20375;-77
2022/12/08 12:43:34;;;;;;;1.40;0.67;;;4.50;99.90;;;;;;5055900;28;20108;-77
2022/12/08 12:46:23;;;;;;;0.63;0.00;;;4.60;99.90;;;;;;5055251;28;20033;-77
2022/12/08 12:48:49;;;;;;;;;;;4.60;99.90;;;;;;5036903;28;20048;-77
2022/12/08 12:51:33;;;;;;;0.75;0.00;;;4.80;99.90;;;;;;5055470;28;20302;-77
2022/12/08 12:54:21;;;;;;;1.25;0.00;;;4.90;99.90;;;;;;5055103;28;20021;-76
2022/12/08 12:57:03;;;;;;;1.55;0.15;;;4.90;99.90;;;;;;5055840;28;20025;-76
2022/12/08 12:59:41;;;;;;;1.27;0.00;;;4.90;99.90;;;;;;5055763;28;20036;-76
2022/12/08 13:02:30;;;;;;;0.45;0.00;;;4.90;99.90;;;;;;5055359;28;20043;-76
2022/12/08 13:05:18;;;;;;;1.45;0.20;;;4.90;99.90;;;;;;5055542;28;20079;-76
2022/12/08 13:07:55;;;;;;;2.10;0.10;;;4.90;99.90;;;;;;5055629;28;20456;-75
2022/12/08 13:10:48;;;;;;;0.68;0.00;;;4.90;99.90;;;;;;5055434;28;20027;-76
2022/12/08 13:13:15;;;;;;;0.30;0.10;;;4.90;99.90;;;;;;5053889;28;20033;-76
2022/12/08 13:15:47;;;;;;;1.42;0.32;;;5.00;99.90;;;;;;5053932;28;20488;-76
2022/12/08 13:18:26;;;;;;;0.20;0.03;;;4.90;99.90;;;;;;5055020;28;20476;-76
2022/12/08 13:21:16;;;;;;;0.08;0.00;;;4.90;99.90;;;;;;5055195;28;20426;-76
2022/12/08 13:24:07;;;;;;;1.75;0.28;;;4.90;99.90;;;;;;5054527;28;20123;-76
2022/12/08 13:26:43;;;;;;;0.35;0.00;;;4.90;99.90;;;;;;5054924;28;20028;-76
2022/12/08 13:29:27;;;;;;;2.05;0.08;;;4.90;99.90;;;;;;5055134;28;20027;-76
2022/12/08 13:31:53;;;;;;;0.40;0.00;;;4.90;99.90;;;;;;5054776;28;20060;-76